createdAt,value
2022-11-15T00:00:48.817Z,18.5
2022-11-15T00:07:02.730Z,18
2022-11-15T00:19:29.268Z,17.8
2022-11-15T00:25:37.317Z,17.7
2022-11-15T00:31:45.968Z,16.4
2022-11-15T00:37:52.570Z,17.4
2022-11-15T00:44:05.109Z,16.7
2022-11-15T00:50:00.183Z,16.2
2022-11-15T00:56:09.379Z,15.4
2022-11-15T01:02:09.207Z,15.1
2022-11-15T01:09:34.707Z,14.9
2022-11-15T01:15:34.761Z,14.5
2022-11-15T01:21:43.219Z,12.9
2022-11-15T01:27:38.737Z,13.7
2022-11-15T01:40:00.486Z,12.7
2022-11-15T01:45:49.845Z,12.6
2022-11-15T01:51:46.759Z,12.3
2022-11-15T01:58:00.703Z,12.2
2022-11-15T02:03:57.441Z,12.1
2022-11-15T02:09:59.061Z,11.6
2022-11-15T02:15:59.071Z,11.1
2022-11-15T02:22:04.676Z,12.2
2022-11-15T02:28:01.080Z,11.5
2022-11-15T02:33:58.382Z,12.9
2022-11-15T02:39:57.514Z,14.1
2022-11-15T02:46:01.070Z,14
2022-11-15T02:52:12.096Z,14.7
2022-11-15T02:58:13.046Z,14.4
2022-11-15T03:04:13.989Z,13.4
2022-11-15T03:10:04.008Z,13.4
2022-11-15T03:16:00.687Z,13.8
2022-11-15T03:22:00.526Z,13.6
2022-11-15T03:28:04.063Z,13.2
2022-11-15T03:34:09.157Z,13.7
2022-11-15T03:40:18.820Z,13.6
2022-11-15T03:46:13.053Z,13.4
2022-11-15T03:52:32.644Z,13.9
2022-11-15T03:58:29.950Z,13.5
2022-11-15T04:10:43.252Z,13.1
2022-11-15T04:17:05.326Z,13
2022-11-15T04:23:11.808Z,12.9
2022-11-15T04:29:19.474Z,12.1
2022-11-15T04:35:44.889Z,11.5
2022-11-15T04:41:53.159Z,11.6
2022-11-15T04:47:54.535Z,12.1
2022-11-15T04:54:09.069Z,10.7
2022-11-15T05:00:18.519Z,10.2
2022-11-15T05:06:27.339Z,10.1
2022-11-15T05:12:17.831Z,9.7
2022-11-15T05:18:29.843Z,9.6
2022-11-15T05:25:00.812Z,10
2022-11-15T05:30:55.684Z,9.9
2022-11-15T05:37:01.023Z,8.2
2022-11-15T05:43:16.862Z,8.4
2022-11-15T05:49:18.810Z,7.5
2022-11-15T05:55:11.909Z,7.7
2022-11-15T06:01:05.740Z,7.7
2022-11-15T06:07:05.651Z,7.5
2022-11-15T06:13:08.012Z,7.6
2022-11-15T06:19:11.104Z,6.9
2022-11-15T06:25:13.205Z,7.1
2022-11-15T06:31:12.426Z,7.5
2022-11-15T06:49:47.721Z,5.9
2022-11-15T06:55:42.613Z,5.7
2022-11-15T07:01:34.631Z,6.7
2022-11-15T07:07:30.580Z,7.3
2022-11-15T07:13:38.438Z,7.7
2022-11-15T07:19:32.523Z,8.1
2022-11-15T07:25:30.901Z,7.7
2022-11-15T07:31:24.655Z,7.5
2022-11-15T07:37:17.744Z,7.5
2022-11-15T07:43:16.839Z,7.3
2022-11-15T07:49:08.929Z,6.5
2022-11-15T07:55:00.146Z,6.2
2022-11-15T08:01:04.637Z,6.4
2022-11-15T08:06:54.965Z,5.5
2022-11-15T08:13:01.447Z,5.1
2022-11-15T08:19:02.619Z,5.1
2022-11-15T08:25:03.532Z,5.3
2022-11-15T08:30:57.132Z,5.3
2022-11-15T08:36:52.822Z,5.3
2022-11-15T08:42:55.131Z,4.4
2022-11-15T08:48:45.110Z,4.5
2022-11-15T08:54:48.245Z,4
2022-11-15T09:00:44.611Z,3.7
2022-11-15T09:06:52.058Z,4.1
2022-11-15T09:12:57.892Z,3.4
2022-11-15T09:18:48.327Z,2.9
2022-11-15T09:24:52.420Z,2.3
2022-11-15T09:30:44.971Z,2.3
2022-11-15T09:36:35.897Z,2.3
2022-11-15T09:42:30.189Z,1.5
2022-11-15T09:48:25.743Z,1.6
2022-11-15T09:55:00.514Z,1.3
2022-11-15T10:01:00.538Z,1.6
2022-11-15T10:07:00.955Z,1.7
2022-11-15T10:12:51.688Z,1.1
2022-11-15T10:18:55.176Z,0.9
2022-11-15T10:31:17.847Z,1.2
2022-11-15T10:37:09.075Z,1
2022-11-15T10:43:18.402Z,2.1
2022-11-15T10:49:21.517Z,1
2022-11-15T10:55:21.067Z,1
2022-11-15T11:01:15.694Z,1.1
2022-11-15T11:07:13.155Z,0.9
2022-11-15T11:13:22.963Z,1
2022-11-15T11:19:13.926Z,1
2022-11-15T11:25:13.489Z,1.3
2022-11-15T11:37:24.040Z,2
2022-11-15T11:43:19.190Z,2
2022-11-15T11:49:12.013Z,2
2022-11-15T11:55:05.436Z,2.3
2022-11-15T12:00:58.616Z,2.3
2022-11-15T12:06:57.912Z,2.8
2022-11-15T12:12:48.990Z,3.1
2022-11-15T12:18:49.256Z,2.9
2022-11-15T12:31:28.358Z,3.3
2022-11-15T12:43:32.950Z,3.4
2022-11-15T12:56:07.444Z,3.2
2022-11-15T13:08:53.116Z,3.5
2022-11-15T13:17:00.082Z,3.3
2022-11-15T13:23:08.749Z,3.4
2022-11-15T13:29:02.270Z,3.3
2022-11-15T13:35:05.128Z,3.4
2022-11-15T13:40:56.077Z,3.8
2022-11-15T13:46:54.061Z,3.6
2022-11-15T13:53:03.404Z,3.2
2022-11-15T13:59:08.816Z,2.6
2022-11-15T14:05:15.855Z,2.7
2022-11-15T14:11:06.465Z,2.4
2022-11-15T14:16:58.836Z,2
2022-11-15T14:22:56.449Z,2.1
2022-11-15T14:28:49.749Z,2.1
2022-11-15T14:34:47.209Z,2.2
2022-11-15T14:40:40.567Z,2
2022-11-15T14:46:33.230Z,1.9
2022-11-15T14:52:41.346Z,2.1
2022-11-15T14:58:35.770Z,2.5
2022-11-15T15:11:07.461Z,2.1
2022-11-15T15:16:58.568Z,2.8
2022-11-15T15:23:05.744Z,2.7
2022-11-15T15:29:04.533Z,3.8
2022-11-15T15:41:28.476Z,2.7
2022-11-15T15:47:18.816Z,2.4
2022-11-15T15:53:16.463Z,3.4
2022-11-15T15:59:13.847Z,2.9
2022-11-15T16:05:04.851Z,4.2
2022-11-15T16:10:55.896Z,3
2022-11-15T16:16:47.653Z,3.3
2022-11-15T16:29:39.485Z,4.5
2022-11-15T16:35:31.620Z,3.6
2022-11-15T16:41:32.762Z,4.7
2022-11-15T16:47:23.300Z,3.5
2022-11-15T16:53:22.830Z,3.3
2022-11-15T16:59:12.054Z,3.6
2022-11-15T17:05:18.803Z,3.5
2022-11-15T17:11:10.471Z,4
2022-11-15T17:17:02.774Z,4
2022-11-15T17:22:56.264Z,3.8
2022-11-15T17:28:46.916Z,4.4
2022-11-15T17:34:40.214Z,4.8
2022-11-15T17:40:31.255Z,5.3
2022-11-15T17:46:21.008Z,5
2022-11-15T17:52:10.320Z,5.6
2022-11-15T17:58:06.209Z,5.4
2022-11-15T18:03:56.100Z,5.3
2022-11-15T18:09:51.163Z,5.9
2022-11-15T18:15:46.782Z,5.3
2022-11-15T18:21:48.765Z,5.6
2022-11-15T18:27:39.950Z,6
2022-11-15T18:33:40.055Z,5.1
2022-11-15T18:39:52.643Z,5.4
2022-11-15T18:45:56.513Z,5.8
2022-11-15T18:52:04.713Z,5.5
2022-11-15T18:57:55.787Z,5.7
2022-11-15T19:03:47.470Z,6.4
2022-11-15T19:09:40.218Z,5.6
2022-11-15T19:15:35.444Z,6.4
2022-11-15T19:21:28.031Z,6.1
2022-11-15T19:27:28.637Z,6.4
2022-11-15T19:33:27.894Z,6.1
2022-11-15T19:39:22.400Z,6.8
2022-11-15T19:45:33.113Z,6.3
2022-11-15T19:51:43.708Z,6
2022-11-15T19:57:34.678Z,6.3
2022-11-15T20:03:30.613Z,5.7
2022-11-15T20:09:28.088Z,6.1
2022-11-15T20:15:24.722Z,5.9
2022-11-15T20:21:20.022Z,7.4
2022-11-15T20:27:20.378Z,9
2022-11-15T20:33:10.980Z,6.3
2022-11-15T20:39:05.848Z,6.1
2022-11-15T20:45:01.103Z,6.1
2022-11-15T20:51:06.827Z,6.3
2022-11-15T20:56:59.553Z,6.3
2022-11-15T21:02:50.765Z,6.1
2022-11-15T21:08:43.947Z,5.7
2022-11-15T21:14:34.885Z,5.7
2022-11-15T21:20:26.452Z,5.5
2022-11-15T21:26:17.622Z,5.1
2022-11-15T21:32:16.760Z,5.2
2022-11-15T21:38:08.935Z,5.3
2022-11-15T21:44:00.589Z,7.7
2022-11-15T21:49:56.329Z,5.9
2022-11-15T21:55:49.783Z,5.2
2022-11-15T22:01:40.457Z,5.8
2022-11-15T22:07:34.897Z,6
2022-11-15T22:13:30.154Z,6.3
2022-11-15T22:19:20.244Z,6.2
2022-11-15T22:25:12.344Z,6.4
2022-11-15T22:31:06.739Z,7.7
2022-11-15T22:37:26.275Z,7.3
2022-11-15T22:43:13.521Z,7.8
2022-11-15T22:49:10.640Z,7.9
2022-11-15T22:55:01.947Z,8.3
2022-11-15T23:00:49.713Z,8.5
2022-11-15T23:06:40.545Z,10.2
2022-11-15T23:12:31.218Z,10.5
2022-11-15T23:18:26.508Z,10.4
2022-11-15T23:24:15.608Z,11.6
2022-11-15T23:30:07.234Z,11.2
2022-11-15T23:35:56.076Z,10.9
2022-11-15T23:41:45.878Z,10.9
2022-11-15T23:47:35.413Z,11
2022-11-15T23:54:36.767Z,12.2
